createdAt,value
2019-02-14T00:00:13.930Z,50.47
2019-02-14T00:02:44.847Z,48.60
2019-02-14T00:05:16.478Z,44.47
2019-02-14T00:07:45.146Z,44.53
2019-02-14T00:10:14.474Z,48.70
2019-02-14T00:12:43.768Z,64.73
2019-02-14T00:15:14.028Z,47.90
2019-02-14T00:17:43.331Z,50.07
2019-02-14T00:20:12.624Z,50.23
2019-02-14T00:22:41.937Z,52.03
2019-02-14T00:25:11.234Z,50.83
2019-02-14T00:27:40.529Z,47.53
2019-02-14T00:30:10.592Z,48.30
2019-02-14T00:32:39.917Z,72.27
2019-02-14T00:35:09.270Z,49.80
2019-02-14T00:37:38.569Z,51.60
2019-02-14T00:40:09.002Z,50.57
2019-02-14T00:42:38.336Z,54.30
2019-02-14T00:45:08.672Z,54.23
2019-02-14T00:47:37.977Z,53.23
2019-02-14T00:50:08.069Z,53.80
2019-02-14T00:52:37.389Z,50.23
2019-02-14T00:55:06.918Z,53.73
2019-02-14T00:57:36.222Z,53.07
2019-02-14T01:00:07.666Z,50.97
2019-02-14T01:02:36.970Z,50.37
2019-02-14T01:05:07.887Z,50.43
2019-02-14T01:07:37.191Z,49.73
2019-02-14T01:10:06.838Z,51.37
2019-02-14T01:12:36.213Z,50.90
2019-02-14T01:15:09.214Z,50.50
2019-02-14T01:17:38.516Z,51.23
2019-02-14T01:20:08.050Z,53.37
2019-02-14T01:22:37.384Z,51.23
2019-02-14T01:25:06.963Z,56.13
2019-02-14T01:27:36.289Z,51.17
2019-02-14T01:30:08.763Z,55.07
2019-02-14T01:32:38.070Z,56.47
2019-02-14T01:35:09.098Z,52.67
2019-02-14T01:37:38.402Z,47.27
2019-02-14T01:40:08.267Z,55.53
2019-02-14T01:42:37.574Z,59.23
2019-02-14T01:45:09.986Z,57.67
2019-02-14T01:47:39.287Z,55.83
2019-02-14T01:50:10.642Z,56.20
2019-02-14T01:52:40.914Z,53.57
2019-02-14T01:55:11.271Z,57.67
2019-02-14T01:57:40.569Z,55.60
2019-02-14T02:00:13.575Z,59.43
2019-02-14T02:02:43.061Z,53.77
2019-02-14T02:05:12.350Z,57.00
2019-02-14T02:07:41.657Z,58.47
2019-02-14T02:10:12.407Z,57.53
2019-02-14T02:12:41.803Z,55.03
2019-02-14T02:15:13.537Z,54.90
2019-02-14T02:17:42.869Z,54.43
2019-02-14T02:20:12.171Z,55.33
2019-02-14T02:22:41.495Z,52.30
2019-02-14T02:25:12.048Z,52.63
2019-02-14T02:27:41.359Z,52.53
2019-02-14T02:30:13.649Z,52.43
2019-02-14T02:32:42.968Z,60.57
2019-02-14T02:35:12.351Z,55.17
2019-02-14T02:37:41.735Z,55.70
2019-02-14T02:40:11.222Z,57.83
2019-02-14T02:42:40.543Z,53.33
2019-02-14T02:45:11.909Z,55.20
2019-02-14T02:47:41.286Z,50.90
2019-02-14T02:50:12.317Z,60.23
2019-02-14T02:52:41.642Z,55.03
2019-02-14T02:55:11.602Z,56.77
2019-02-14T02:57:40.890Z,54.90
2019-02-14T03:00:13.287Z,59.23
2019-02-14T03:02:42.594Z,52.93
2019-02-14T03:05:13.750Z,56.87
2019-02-14T03:07:43.056Z,58.50
2019-02-14T03:10:15.049Z,61.63
2019-02-14T03:12:44.478Z,55.67
2019-02-14T03:15:14.899Z,58.93
2019-02-14T03:17:44.278Z,62.00
2019-02-14T03:20:13.772Z,60.43
2019-02-14T03:22:43.094Z,60.43
2019-02-14T03:25:18.061Z,58.07
2019-02-14T03:27:47.369Z,53.43
2019-02-14T03:30:17.140Z,66.63
2019-02-14T03:32:46.436Z,75.33
2019-02-14T03:35:15.783Z,57.83
2019-02-14T03:37:45.102Z,56.83
2019-02-14T03:40:14.954Z,60.80
2019-02-14T03:42:44.321Z,62.33
2019-02-14T03:45:18.438Z,61.53
2019-02-14T03:47:47.731Z,59.27
2019-02-14T03:50:17.063Z,76.73
2019-02-14T03:52:46.350Z,54.83
2019-02-14T03:55:15.650Z,56.93
2019-02-14T03:57:44.965Z,60.10
2019-02-14T04:00:18.242Z,61.97
2019-02-14T04:02:47.567Z,54.73
2019-02-14T04:05:16.885Z,56.37
2019-02-14T04:07:46.275Z,61.10
2019-02-14T04:10:15.795Z,58.83
2019-02-14T04:12:45.154Z,66.77
2019-02-14T04:15:16.015Z,70.70
2019-02-14T04:17:45.338Z,64.00
2019-02-14T04:20:14.831Z,68.13
2019-02-14T04:22:44.150Z,59.60
2019-02-14T04:25:13.465Z,59.40
2019-02-14T04:27:42.755Z,58.23
2019-02-14T04:30:15.164Z,61.57
2019-02-14T04:32:44.464Z,58.93
2019-02-14T04:35:13.783Z,65.37
2019-02-14T04:37:43.087Z,62.33
2019-02-14T04:40:13.546Z,59.73
2019-02-14T04:42:43.030Z,69.97
2019-02-14T04:45:13.785Z,59.07
2019-02-14T04:47:43.648Z,78.10
2019-02-14T04:50:13.404Z,63.33
2019-02-14T04:52:42.737Z,61.17
2019-02-14T04:55:12.298Z,60.00
2019-02-14T04:57:41.589Z,64.27
2019-02-14T05:00:15.534Z,56.50
2019-02-14T05:02:44.862Z,63.20
2019-02-14T05:05:15.147Z,76.63
2019-02-14T05:07:44.472Z,62.40
2019-02-14T05:10:13.888Z,74.37
2019-02-14T05:12:43.182Z,74.50
2019-02-14T05:15:12.562Z,56.17
2019-02-14T05:17:41.871Z,60.67
2019-02-14T05:20:12.127Z,61.03
2019-02-14T05:22:41.417Z,59.70
2019-02-14T05:25:10.995Z,61.47
2019-02-14T05:27:40.293Z,63.60
2019-02-14T05:30:12.705Z,60.87
2019-02-14T05:32:42.065Z,65.50
2019-02-14T05:35:11.391Z,68.43
2019-02-14T05:37:40.685Z,98.47
2019-02-14T05:40:11.231Z,65.20
2019-02-14T05:42:40.624Z,61.93
2019-02-14T05:45:14.351Z,65.57
2019-02-14T05:47:43.655Z,67.37
2019-02-14T05:50:14.296Z,66.80
2019-02-14T05:52:43.615Z,66.20
2019-02-14T05:55:13.521Z,70.00
2019-02-14T05:57:42.914Z,62.60
2019-02-14T06:00:16.951Z,72.30
2019-02-14T06:02:46.249Z,72.00
2019-02-14T06:05:16.605Z,73.10
2019-02-14T06:07:45.914Z,81.93
2019-02-14T06:10:15.207Z,93.30
2019-02-14T06:12:44.509Z,65.60
2019-02-14T06:15:14.107Z,68.70
2019-02-14T06:17:43.437Z,68.60
2019-02-14T06:20:13.390Z,70.50
2019-02-14T06:22:42.711Z,67.13
2019-02-14T06:25:13.266Z,66.40
2019-02-14T06:27:42.576Z,59.47
2019-02-14T06:30:15.753Z,52.13
2019-02-14T06:32:45.062Z,51.93
2019-02-14T06:35:14.394Z,58.30
2019-02-14T06:37:44.762Z,63.70
2019-02-14T06:40:14.427Z,63.77
2019-02-14T06:42:43.723Z,64.07
2019-02-14T06:45:17.392Z,67.67
2019-02-14T06:47:46.685Z,70.77
2019-02-14T06:50:16.033Z,69.10
2019-02-14T06:52:45.349Z,74.93
2019-02-14T06:55:14.659Z,66.83
2019-02-14T06:57:43.979Z,68.40
2019-02-14T07:00:15.413Z,68.43
2019-02-14T07:02:44.733Z,63.03
2019-02-14T07:05:14.030Z,64.40
2019-02-14T07:07:43.347Z,69.97
2019-02-14T07:10:33.527Z,64.20
2019-02-14T07:13:02.822Z,63.33
2019-02-14T07:15:32.121Z,76.33
2019-02-14T07:18:01.409Z,61.27
2019-02-14T07:20:30.765Z,63.40
2019-02-14T07:23:00.084Z,64.53
2019-02-14T07:25:29.394Z,61.83
2019-02-14T07:27:58.700Z,61.80
2019-02-14T07:30:28.310Z,65.80
2019-02-14T07:32:57.631Z,68.77
2019-02-14T07:35:27.921Z,65.30
2019-02-14T07:37:57.229Z,61.07
2019-02-14T07:40:26.525Z,64.93
2019-02-14T07:42:55.842Z,67.97
2019-02-14T07:45:25.137Z,61.57
2019-02-14T07:47:54.431Z,59.00
2019-02-14T07:50:23.754Z,57.20
2019-02-14T07:52:53.086Z,65.10
2019-02-14T07:55:22.495Z,64.80
2019-02-14T07:57:51.802Z,57.73
2019-02-14T08:00:22.095Z,55.83
2019-02-14T08:02:51.406Z,49.90
2019-02-14T08:05:20.734Z,48.87
2019-02-14T08:07:50.050Z,45.90
2019-02-14T08:10:19.713Z,50.37
2019-02-14T08:12:49.015Z,42.83
2019-02-14T08:15:18.431Z,42.40
2019-02-14T08:17:47.733Z,41.47
2019-02-14T08:20:18.870Z,46.00
2019-02-14T08:22:48.220Z,45.17
2019-02-14T08:25:17.572Z,38.83
2019-02-14T08:27:46.878Z,45.13
2019-02-14T08:30:17.443Z,43.67
2019-02-14T08:32:46.758Z,45.90
2019-02-14T08:35:16.102Z,70.70
2019-02-14T08:37:46.471Z,40.13
2019-02-14T08:40:18.902Z,42.67
2019-02-14T08:42:48.194Z,43.80
2019-02-14T08:45:17.506Z,45.47
2019-02-14T08:47:46.823Z,42.30
2019-02-14T08:50:16.133Z,43.63
2019-02-14T08:52:45.434Z,47.47
2019-02-14T08:55:14.770Z,43.53
2019-02-14T08:57:44.109Z,43.73
2019-02-14T09:00:17.901Z,44.63
2019-02-14T09:02:47.231Z,50.10
2019-02-14T09:05:16.562Z,43.53
2019-02-14T09:07:54.089Z,50.43
2019-02-14T09:10:18.082Z,44.53
2019-02-14T09:12:47.411Z,43.77
2019-02-14T09:15:16.718Z,48.20
2019-02-14T09:17:46.057Z,45.97
2019-02-14T09:20:20.445Z,52.67
2019-02-14T09:22:49.750Z,54.03
2019-02-14T09:25:19.084Z,51.90
2019-02-14T09:27:48.371Z,52.83
2019-02-14T09:30:17.694Z,50.50
2019-02-14T09:32:48.147Z,53.67
2019-02-14T09:35:17.450Z,47.90
2019-02-14T09:37:46.770Z,53.60
2019-02-14T09:40:18.982Z,52.07
2019-02-14T09:42:48.316Z,53.83
2019-02-14T09:45:17.769Z,53.77
2019-02-14T09:47:47.051Z,51.40
2019-02-14T09:50:16.375Z,57.53
2019-02-14T09:52:45.694Z,53.03
2019-02-14T09:55:15.047Z,52.40
2019-02-14T09:57:44.359Z,50.73
2019-02-14T10:00:18.718Z,49.03
2019-02-14T10:02:48.042Z,52.73
2019-02-14T10:05:17.383Z,50.23
2019-02-14T10:07:46.735Z,50.90
2019-02-14T10:10:21.136Z,50.90
2019-02-14T10:12:50.530Z,51.23
2019-02-14T10:15:19.895Z,51.23
2019-02-14T10:17:49.218Z,53.93
2019-02-14T10:20:18.786Z,52.20
2019-02-14T10:22:48.092Z,62.10
2019-02-14T10:25:17.411Z,54.33
2019-02-14T10:27:46.709Z,52.30
2019-02-14T10:30:21.239Z,49.63
2019-02-14T10:32:51.713Z,52.10
2019-02-14T10:35:21.053Z,52.33
2019-02-14T10:37:52.156Z,49.83
2019-02-14T10:40:21.489Z,52.00
2019-02-14T10:42:51.978Z,51.60
2019-02-14T10:45:22.550Z,51.80
2019-02-14T10:47:51.931Z,49.70
2019-02-14T10:50:21.245Z,49.63
2019-02-14T10:52:51.464Z,54.17
2019-02-14T10:55:21.731Z,53.53
2019-02-14T10:57:51.057Z,48.27
2019-02-14T11:00:25.390Z,51.53
2019-02-14T11:02:54.726Z,54.57
2019-02-14T11:05:24.083Z,48.53
2019-02-14T11:07:53.390Z,44.00
2019-02-14T11:10:22.806Z,50.37
2019-02-14T11:12:52.133Z,49.90
2019-02-14T11:15:23.732Z,47.07
2019-02-14T11:17:53.065Z,42.27
2019-02-14T11:20:22.350Z,53.97
2019-02-14T11:22:51.667Z,43.27
2019-02-14T11:25:24.053Z,43.07
2019-02-14T11:27:53.363Z,62.23
2019-02-14T11:30:22.678Z,44.30
2019-02-14T11:32:51.983Z,39.60
2019-02-14T11:35:21.314Z,44.50
2019-02-14T11:37:50.681Z,39.40
2019-02-14T11:40:20.067Z,39.23
2019-02-14T11:42:49.382Z,40.43
2019-02-14T11:45:23.027Z,42.80
2019-02-14T11:47:52.344Z,45.93
2019-02-14T11:50:21.641Z,35.20
2019-02-14T11:52:50.955Z,35.90
2019-02-14T11:55:20.306Z,36.67
2019-02-14T11:57:49.670Z,36.30
2019-02-14T12:00:22.639Z,40.50
2019-02-14T12:02:55.434Z,38.07
2019-02-14T12:05:22.941Z,35.67
2019-02-14T12:07:52.282Z,34.87
2019-02-14T12:10:21.562Z,32.37
2019-02-14T12:12:50.900Z,36.80
2019-02-14T12:15:20.222Z,34.30
2019-02-14T12:17:49.543Z,35.40
2019-02-14T12:20:18.874Z,36.10
2019-02-14T12:22:48.172Z,32.13
2019-02-14T12:25:25.523Z,30.67
2019-02-14T12:27:54.826Z,32.60
2019-02-14T12:30:24.137Z,29.23
2019-02-14T12:32:53.486Z,33.97
2019-02-14T12:35:22.845Z,28.10
2019-02-14T12:37:52.152Z,27.03
2019-02-14T12:40:21.506Z,29.30
2019-02-14T12:42:50.870Z,28.77
2019-02-14T12:45:25.291Z,29.53
2019-02-14T12:47:54.249Z,28.33
2019-02-14T12:50:23.591Z,28.37
2019-02-14T12:52:52.909Z,26.00
2019-02-14T12:55:22.227Z,23.57
2019-02-14T12:57:51.545Z,26.13
2019-02-14T13:00:23.950Z,26.93
2019-02-14T13:02:53.316Z,24.67
2019-02-14T13:05:22.735Z,25.67
2019-02-14T13:07:52.057Z,23.07
2019-02-14T13:10:21.426Z,24.67
2019-02-14T13:12:50.718Z,23.70
2019-02-14T13:15:22.829Z,25.10
2019-02-14T13:17:52.160Z,24.13
2019-02-14T13:20:21.462Z,27.50
2019-02-14T13:22:50.790Z,27.83
2019-02-14T13:25:20.170Z,22.73
2019-02-14T13:27:49.485Z,27.97
2019-02-14T13:30:24.557Z,25.23
2019-02-14T13:32:53.855Z,22.03
2019-02-14T13:35:23.168Z,27.93
2019-02-14T13:37:52.458Z,22.67
2019-02-14T13:40:21.759Z,25.03
2019-02-14T13:42:51.082Z,22.33
2019-02-14T13:45:23.790Z,24.93
2019-02-14T13:47:54.202Z,24.07
2019-02-14T13:50:23.589Z,34.03
2019-02-14T13:52:52.883Z,21.63
2019-02-14T13:55:22.192Z,24.47
2019-02-14T13:57:51.526Z,24.77
2019-02-14T14:00:28.727Z,20.80
2019-02-14T14:02:58.050Z,21.70
2019-02-14T14:05:27.355Z,21.00
2019-02-14T14:07:56.674Z,27.90
2019-02-14T14:10:26.041Z,21.50
2019-02-14T14:12:55.351Z,22.17
2019-02-14T14:15:24.660Z,23.30
2019-02-14T14:17:53.966Z,20.27
2019-02-14T14:20:23.290Z,18.30
2019-02-14T14:22:52.602Z,29.53
2019-02-14T14:25:21.902Z,22.20
2019-02-14T14:27:51.229Z,20.37
2019-02-14T14:30:20.527Z,21.37
2019-02-14T14:32:49.843Z,20.50
2019-02-14T14:35:19.141Z,25.03
2019-02-14T14:37:48.477Z,19.70
2019-02-14T14:40:20.449Z,20.73
2019-02-14T14:42:51.578Z,19.27
2019-02-14T14:45:40.874Z,22.00
2019-02-14T14:48:19.188Z,22.43
2019-02-14T14:50:42.851Z,22.70
2019-02-14T14:53:12.164Z,21.97
2019-02-14T14:55:41.455Z,17.73
2019-02-14T14:58:11.629Z,18.73
2019-02-14T15:00:41.073Z,21.97
2019-02-14T15:03:10.408Z,18.83
2019-02-14T15:05:39.702Z,19.90
2019-02-14T15:08:09.033Z,24.37
2019-02-14T15:10:38.326Z,19.83
2019-02-14T15:13:07.680Z,22.17
2019-02-14T15:15:37.062Z,28.57
2019-02-14T15:18:06.369Z,20.73
2019-02-14T15:20:35.694Z,21.53
2019-02-14T15:23:04.994Z,20.87
2019-02-14T15:25:34.324Z,22.00
2019-02-14T15:28:03.635Z,31.87
2019-02-14T15:30:32.930Z,22.20
2019-02-14T15:33:02.258Z,16.97
2019-02-14T15:35:31.573Z,21.77
2019-02-14T15:38:00.907Z,22.30
2019-02-14T15:40:30.202Z,23.63
2019-02-14T15:42:59.521Z,22.03
2019-02-14T15:45:28.835Z,17.53
2019-02-14T15:47:58.155Z,21.53
2019-02-14T15:50:27.964Z,23.80
2019-02-14T15:52:59.437Z,21.27
2019-02-14T15:55:28.759Z,22.47
2019-02-14T15:57:58.052Z,21.23
2019-02-14T16:00:27.376Z,19.60
2019-02-14T16:02:56.686Z,22.50
2019-02-14T16:05:25.983Z,19.13
2019-02-14T16:07:55.303Z,19.00
2019-02-14T16:10:25.502Z,26.37
2019-02-14T16:12:55.621Z,20.93
2019-02-14T16:15:24.942Z,19.93
2019-02-14T16:17:54.245Z,24.17
2019-02-14T16:20:23.531Z,22.03
2019-02-14T16:22:52.850Z,19.10
2019-02-14T16:25:22.187Z,21.40
2019-02-14T16:27:51.473Z,20.40
2019-02-14T16:30:20.778Z,21.83
2019-02-14T16:32:50.069Z,25.80
2019-02-14T16:35:19.377Z,25.20
2019-02-14T16:37:50.612Z,26.47
2019-02-14T16:40:27.690Z,24.87
2019-02-14T16:42:50.874Z,25.23
2019-02-14T16:45:20.185Z,24.93
2019-02-14T16:47:49.494Z,22.37
2019-02-14T16:50:18.864Z,23.47
2019-02-14T16:52:48.211Z,30.40
2019-02-14T16:55:17.544Z,27.10
2019-02-14T16:57:46.857Z,52.77
2019-02-14T17:00:16.166Z,27.00
2019-02-14T17:02:45.483Z,25.27
2019-02-14T17:05:14.805Z,26.03
2019-02-14T17:07:44.106Z,19.27
2019-02-14T17:10:13.498Z,34.87
2019-02-14T17:12:42.793Z,25.23
2019-02-14T17:15:12.123Z,25.47
2019-02-14T17:17:41.414Z,29.10
2019-02-14T17:20:11.479Z,22.17
2019-02-14T17:22:40.862Z,22.20
2019-02-14T17:25:10.353Z,21.23
2019-02-14T17:27:39.655Z,21.53
2019-02-14T17:30:09.778Z,24.30
2019-02-14T17:32:39.094Z,26.97
2019-02-14T17:35:08.418Z,24.97
2019-02-14T17:37:37.708Z,20.27
2019-02-14T17:40:09.527Z,22.33
2019-02-14T17:42:38.805Z,21.87
2019-02-14T17:45:09.546Z,25.07
2019-02-14T17:47:38.840Z,26.83
2019-02-14T17:50:09.502Z,28.33
2019-02-14T17:52:38.834Z,24.37
2019-02-14T17:55:09.683Z,23.53
2019-02-14T17:57:39.002Z,28.70
2019-02-14T18:00:12.650Z,21.27
2019-02-14T18:02:41.948Z,25.40
2019-02-14T18:05:11.239Z,24.33
2019-02-14T18:07:40.573Z,26.97
2019-02-14T18:10:12.126Z,29.43
2019-02-14T18:12:41.437Z,24.83
2019-02-14T18:15:12.898Z,23.73
2019-02-14T18:17:42.202Z,25.50
2019-02-14T18:20:11.697Z,28.83
2019-02-14T18:22:41.014Z,22.47
2019-02-14T18:25:11.574Z,28.57
2019-02-14T18:27:40.874Z,25.13
2019-02-14T18:30:13.227Z,32.23
2019-02-14T18:32:42.558Z,21.87
2019-02-14T18:35:12.415Z,22.10
2019-02-14T18:37:41.740Z,22.10
2019-02-14T18:40:12.163Z,24.13
2019-02-14T18:42:48.590Z,21.73
2019-02-14T18:45:17.903Z,21.30
2019-02-14T18:47:47.230Z,20.80
2019-02-14T18:50:16.524Z,21.63
2019-02-14T18:52:45.850Z,26.93
2019-02-14T18:55:15.184Z,26.73
2019-02-14T18:57:44.517Z,29.57
2019-02-14T19:00:16.254Z,27.90
2019-02-14T19:02:45.579Z,24.83
2019-02-14T19:05:14.929Z,33.20
2019-02-14T19:07:44.255Z,26.83
2019-02-14T19:10:15.386Z,25.73
2019-02-14T19:12:44.713Z,21.97
2019-02-14T19:15:14.298Z,24.53
2019-02-14T19:17:43.634Z,25.40
2019-02-14T19:20:13.716Z,26.33
2019-02-14T19:22:43.062Z,28.10
2019-02-14T19:25:12.370Z,24.13
2019-02-14T19:27:41.743Z,24.63
2019-02-14T19:30:12.109Z,21.80
2019-02-14T19:32:41.473Z,19.37
2019-02-14T19:35:11.777Z,21.50
2019-02-14T19:37:41.090Z,18.73
2019-02-14T19:40:10.589Z,21.00
2019-02-14T19:42:39.899Z,16.87
2019-02-14T19:45:10.630Z,22.63
2019-02-14T19:47:39.934Z,20.83
2019-02-14T19:50:10.912Z,21.97
2019-02-14T19:52:40.245Z,22.47
2019-02-14T19:55:10.044Z,25.00
2019-02-14T19:57:39.346Z,22.33
2019-02-14T20:00:11.978Z,28.10
2019-02-14T20:02:41.275Z,19.60
2019-02-14T20:05:10.749Z,18.83
2019-02-14T20:07:40.067Z,20.97
2019-02-14T20:10:11.403Z,21.93
2019-02-14T20:12:40.720Z,24.57
2019-02-14T20:15:20.243Z,25.10
2019-02-14T20:17:49.595Z,24.07
2019-02-14T20:20:18.934Z,22.97
2019-02-14T20:22:48.258Z,23.27
2019-02-14T20:25:20.682Z,22.23
2019-02-14T20:27:50.174Z,25.10
2019-02-14T20:30:19.574Z,26.03
2019-02-14T20:32:48.886Z,27.53
2019-02-14T20:35:18.194Z,29.93
2019-02-14T20:37:47.511Z,26.30
2019-02-14T20:40:16.823Z,25.93
2019-02-14T20:42:46.189Z,25.60
2019-02-14T20:45:15.547Z,26.73
2019-02-14T20:47:44.861Z,31.10
2019-02-14T20:50:15.307Z,25.87
2019-02-14T20:52:44.596Z,30.00
2019-02-14T20:55:16.925Z,36.30
2019-02-14T20:57:46.287Z,28.53
2019-02-14T21:00:26.942Z,25.73
2019-02-14T21:02:56.238Z,26.83
2019-02-14T21:05:25.617Z,21.27
2019-02-14T21:07:54.951Z,24.33
2019-02-14T21:10:24.301Z,26.40
2019-02-14T21:12:53.610Z,26.33
2019-02-14T21:15:22.906Z,24.10
2019-02-14T21:17:52.210Z,23.03
2019-02-14T21:20:21.517Z,24.63
2019-02-14T21:22:50.810Z,21.93
2019-02-14T21:25:22.801Z,18.57
2019-02-14T21:27:51.166Z,22.17
2019-02-14T21:30:20.961Z,23.93
2019-02-14T21:32:50.316Z,22.73
2019-02-14T21:35:19.662Z,22.50
2019-02-14T21:37:48.993Z,23.43
2019-02-14T21:40:19.719Z,20.93
2019-02-14T21:42:49.273Z,21.27
2019-02-14T21:45:18.634Z,22.67
2019-02-14T21:47:49.131Z,21.93
2019-02-14T21:50:18.618Z,22.67
2019-02-14T21:52:47.949Z,21.07
2019-02-14T21:55:17.396Z,23.97
2019-02-14T21:57:46.932Z,19.83
2019-02-14T22:00:21.927Z,25.10
2019-02-14T22:02:51.299Z,29.87
2019-02-14T22:05:25.197Z,24.23
2019-02-14T22:07:51.667Z,25.57
2019-02-14T22:10:20.990Z,25.47
2019-02-14T22:12:50.322Z,27.13
2019-02-14T22:15:25.194Z,27.93
2019-02-14T22:17:54.554Z,24.07
2019-02-14T22:20:23.884Z,24.30
2019-02-14T22:22:53.206Z,28.17
2019-02-14T22:25:22.517Z,21.90
2019-02-14T22:27:51.823Z,22.93
2019-02-14T22:30:21.120Z,24.87
2019-02-14T22:32:50.457Z,25.47
2019-02-14T22:35:19.746Z,22.57
2019-02-14T22:37:49.070Z,24.60
2019-02-14T22:40:18.375Z,20.97
2019-02-14T22:42:47.958Z,19.57
2019-02-14T22:45:17.254Z,18.43
2019-02-14T22:47:46.584Z,20.03
2019-02-14T22:50:15.890Z,24.67
2019-02-14T22:52:45.214Z,23.20
2019-02-14T22:55:14.526Z,24.00
2019-02-14T22:57:43.851Z,21.30
2019-02-14T23:00:32.659Z,18.70
2019-02-14T23:03:03.766Z,21.77
2019-02-14T23:05:33.098Z,27.70
2019-02-14T23:08:02.591Z,25.00
2019-02-14T23:10:31.981Z,25.70
2019-02-14T23:13:01.278Z,27.23
2019-02-14T23:15:30.598Z,26.47
2019-02-14T23:17:59.920Z,25.23
2019-02-14T23:20:29.234Z,33.13
2019-02-14T23:22:58.526Z,24.83
2019-02-14T23:25:27.831Z,26.20
2019-02-14T23:27:57.762Z,23.23
2019-02-14T23:30:27.069Z,19.67
2019-02-14T23:32:56.384Z,25.77
2019-02-14T23:35:25.713Z,28.13
2019-02-14T23:37:54.998Z,23.77
2019-02-14T23:40:24.301Z,23.83
2019-02-14T23:42:53.598Z,26.27
2019-02-14T23:45:22.924Z,23.73
2019-02-14T23:47:52.237Z,25.50
2019-02-14T23:50:21.565Z,29.10
2019-02-14T23:52:50.864Z,24.73
2019-02-14T23:55:20.203Z,24.83
2019-02-14T23:57:49.481Z,21.83
